createdAt,value
2018-07-25T00:00:25.470Z,0.00
2018-07-25T00:01:25.473Z,0.00
2018-07-25T00:02:25.474Z,0.00
2018-07-25T00:03:25.477Z,0.00
2018-07-25T00:04:25.481Z,0.00
2018-07-25T00:05:25.486Z,0.00
2018-07-25T00:06:25.488Z,0.00
2018-07-25T00:07:26.996Z,0.00
2018-07-25T00:08:25.494Z,0.00
2018-07-25T00:09:25.499Z,0.00
2018-07-25T00:10:25.501Z,0.00
2018-07-25T00:11:25.502Z,0.00
2018-07-25T00:12:25.506Z,0.00
2018-07-25T00:13:25.512Z,0.00
2018-07-25T00:14:25.513Z,0.00
2018-07-25T00:15:25.525Z,0.00
2018-07-25T00:16:25.520Z,0.00
2018-07-25T00:17:25.523Z,0.00
2018-07-25T00:18:25.525Z,0.00
2018-07-25T00:19:25.525Z,0.00
2018-07-25T00:20:25.529Z,0.00
2018-07-25T00:21:25.608Z,0.00
2018-07-25T00:22:25.542Z,0.00
2018-07-25T00:23:25.540Z,0.00
2018-07-25T00:24:25.544Z,0.00
2018-07-25T00:25:25.549Z,0.00
2018-07-25T00:26:25.551Z,0.00
2018-07-25T00:27:25.552Z,0.00
2018-07-25T00:28:25.556Z,0.00
2018-07-25T00:29:25.562Z,0.00
2018-07-25T00:30:25.563Z,0.00
2018-07-25T00:31:25.569Z,0.00
2018-07-25T00:32:25.586Z,0.00
2018-07-25T00:33:25.583Z,0.00
2018-07-25T00:34:25.585Z,0.00
2018-07-25T00:35:25.587Z,0.00
2018-07-25T00:36:25.633Z,0.00
2018-07-25T00:37:25.592Z,0.00
2018-07-25T00:38:25.583Z,0.00
2018-07-25T00:39:26.439Z,0.00
2018-07-25T00:40:25.593Z,0.00
2018-07-25T00:41:25.598Z,0.00
2018-07-25T00:42:25.600Z,0.00
2018-07-25T00:43:25.601Z,0.00
2018-07-25T00:44:25.605Z,0.00
2018-07-25T00:45:26.442Z,0.00
2018-07-25T00:46:25.610Z,0.00
2018-07-25T00:47:25.610Z,0.00
2018-07-25T00:48:25.613Z,0.00
2018-07-25T00:49:26.444Z,0.00
2018-07-25T00:50:25.619Z,0.00
2018-07-25T00:51:25.620Z,0.00
2018-07-25T00:52:25.626Z,0.00
2018-07-25T00:53:25.642Z,0.00
2018-07-25T00:54:25.635Z,0.00
2018-07-25T00:55:25.642Z,0.00
2018-07-25T00:56:25.642Z,0.00
2018-07-25T00:57:25.644Z,0.00
2018-07-25T00:58:25.646Z,0.00
2018-07-25T00:59:25.651Z,0.00
2018-07-25T01:00:25.651Z,0.00
2018-07-25T01:01:25.656Z,0.00
2018-07-25T01:02:25.659Z,0.00
2018-07-25T01:03:25.664Z,0.00
2018-07-25T01:04:25.663Z,0.00
2018-07-25T01:05:25.668Z,0.00
2018-07-25T01:06:25.670Z,0.00
2018-07-25T01:07:25.673Z,0.00
2018-07-25T01:08:25.674Z,0.00
2018-07-25T01:09:25.680Z,0.00
2018-07-25T01:10:25.684Z,0.00
2018-07-25T01:11:25.683Z,0.00
2018-07-25T01:12:25.688Z,0.00
2018-07-25T01:13:25.691Z,0.00
2018-07-25T01:14:25.694Z,0.00
2018-07-25T01:15:25.696Z,0.00
2018-07-25T01:16:25.700Z,0.00
2018-07-25T01:17:25.702Z,0.00
2018-07-25T01:18:25.705Z,0.00
2018-07-25T01:19:25.706Z,0.00
2018-07-25T01:20:25.711Z,0.00
2018-07-25T01:21:25.712Z,0.00
2018-07-25T01:22:25.717Z,0.00
2018-07-25T01:23:25.717Z,0.00
2018-07-25T01:24:25.725Z,0.00
2018-07-25T01:25:25.727Z,0.00
2018-07-25T01:26:25.727Z,0.00
2018-07-25T01:27:25.729Z,0.00
2018-07-25T01:28:25.732Z,0.00
2018-07-25T01:29:25.746Z,0.00
2018-07-25T01:30:25.736Z,0.00
2018-07-25T01:31:25.741Z,0.00
2018-07-25T01:32:25.744Z,0.00
2018-07-25T01:33:25.751Z,0.00
2018-07-25T01:34:25.748Z,0.00
2018-07-25T01:35:25.751Z,0.00
2018-07-25T01:36:25.755Z,0.00
2018-07-25T01:37:25.757Z,0.00
2018-07-25T01:38:25.758Z,0.00
2018-07-25T01:39:25.764Z,0.00
2018-07-25T01:40:25.762Z,0.00
2018-07-25T01:41:25.767Z,0.00
2018-07-25T01:42:25.771Z,0.00
2018-07-25T01:43:25.773Z,0.00
2018-07-25T01:44:25.773Z,0.00
2018-07-25T01:45:25.778Z,0.00
2018-07-25T01:46:25.780Z,0.00
2018-07-25T01:47:25.782Z,0.00
2018-07-25T01:48:25.787Z,0.00
2018-07-25T01:49:25.787Z,0.00
2018-07-25T01:50:25.790Z,0.00
2018-07-25T01:51:25.796Z,0.00
2018-07-25T01:52:25.794Z,0.00
2018-07-25T01:53:25.801Z,0.00
2018-07-25T01:54:25.800Z,0.00
2018-07-25T01:55:25.814Z,0.00
2018-07-25T01:56:25.806Z,0.00
2018-07-25T01:57:25.811Z,0.00
2018-07-25T01:58:25.809Z,0.00
2018-07-25T01:59:25.813Z,0.00
2018-07-25T02:00:25.816Z,0.00
2018-07-25T02:01:25.844Z,0.00
2018-07-25T02:02:25.821Z,0.00
2018-07-25T02:03:25.823Z,0.00
2018-07-25T02:04:25.823Z,0.00
2018-07-25T02:05:25.827Z,0.00
2018-07-25T02:06:25.830Z,0.00
2018-07-25T02:07:25.838Z,0.00
2018-07-25T02:08:25.838Z,0.00
2018-07-25T02:09:25.838Z,0.00
2018-07-25T02:10:25.841Z,0.00
2018-07-25T02:11:25.845Z,0.00
2018-07-25T02:12:25.847Z,0.00
2018-07-25T02:13:25.851Z,0.00
2018-07-25T02:14:25.851Z,0.00
2018-07-25T02:15:25.855Z,0.00
2018-07-25T02:16:25.862Z,0.00
2018-07-25T02:17:25.860Z,0.00
2018-07-25T02:18:25.861Z,0.00
2018-07-25T02:19:25.875Z,0.00
2018-07-25T02:20:25.867Z,0.00
2018-07-25T02:21:25.868Z,0.00
2018-07-25T02:22:25.873Z,0.00
2018-07-25T02:23:25.873Z,0.00
2018-07-25T02:24:25.874Z,0.00
2018-07-25T02:25:25.908Z,0.00
2018-07-25T02:26:25.879Z,0.00
2018-07-25T02:27:25.885Z,0.00
2018-07-25T02:28:25.886Z,0.00
2018-07-25T02:29:25.888Z,0.00
2018-07-25T02:30:25.890Z,0.00
2018-07-25T02:31:25.894Z,0.00
2018-07-25T02:32:25.894Z,0.00
2018-07-25T02:33:25.897Z,0.00
2018-07-25T02:34:25.902Z,0.00
2018-07-25T02:35:25.904Z,0.00
2018-07-25T02:36:25.907Z,0.00
2018-07-25T02:37:25.911Z,0.00
2018-07-25T02:38:25.914Z,0.00
2018-07-25T02:39:25.912Z,0.00
2018-07-25T02:40:25.921Z,0.00
2018-07-25T02:41:25.921Z,0.00
2018-07-25T02:42:25.984Z,0.00
2018-07-25T02:43:25.928Z,0.00
2018-07-25T02:44:25.927Z,0.00
2018-07-25T02:45:25.930Z,0.00
2018-07-25T02:46:25.933Z,0.00
2018-07-25T02:47:25.938Z,0.00
2018-07-25T02:48:25.938Z,0.00
2018-07-25T02:49:25.937Z,0.00
2018-07-25T02:50:25.939Z,0.00
2018-07-25T02:51:25.942Z,0.00
2018-07-25T02:52:25.945Z,0.00
2018-07-25T02:53:25.947Z,0.00
2018-07-25T02:54:25.957Z,0.00
2018-07-25T02:55:25.956Z,0.00
2018-07-25T02:56:25.956Z,0.00
2018-07-25T02:57:25.958Z,0.00
2018-07-25T02:58:25.960Z,0.00
2018-07-25T02:59:25.961Z,0.00
2018-07-25T03:00:25.963Z,0.00
2018-07-25T03:01:25.968Z,0.00
2018-07-25T03:02:25.970Z,0.00
2018-07-25T03:03:25.973Z,0.00
2018-07-25T03:04:25.980Z,0.00
2018-07-25T03:05:25.977Z,0.00
2018-07-25T03:06:25.978Z,0.00
2018-07-25T03:07:25.983Z,0.00
2018-07-25T03:08:25.986Z,0.00
2018-07-25T03:09:25.986Z,0.00
2018-07-25T03:10:25.988Z,0.00
2018-07-25T03:11:25.990Z,5.63
2018-07-25T03:12:25.991Z,5.63
2018-07-25T03:13:25.992Z,5.63
2018-07-25T03:14:25.997Z,5.63
2018-07-25T03:15:25.999Z,5.63
2018-07-25T03:16:26.003Z,5.63
2018-07-25T03:17:26.007Z,5.63
2018-07-25T03:18:26.008Z,5.63
2018-07-25T03:19:26.012Z,5.63
2018-07-25T03:20:26.009Z,5.63
2018-07-25T03:21:26.011Z,5.63
2018-07-25T03:22:26.015Z,11.25
2018-07-25T03:23:26.016Z,11.25
2018-07-25T03:24:26.019Z,11.25
2018-07-25T03:25:26.020Z,11.25
2018-07-25T03:26:26.031Z,11.25
2018-07-25T03:27:26.027Z,11.25
2018-07-25T03:28:26.026Z,16.88
2018-07-25T03:29:26.031Z,16.88
2018-07-25T03:30:26.031Z,16.88
2018-07-25T03:31:26.062Z,16.88
2018-07-25T03:32:26.035Z,16.88
2018-07-25T03:33:26.038Z,22.50
2018-07-25T03:34:26.039Z,22.50
2018-07-25T03:35:26.038Z,22.50
2018-07-25T03:36:26.041Z,28.13
2018-07-25T03:37:26.073Z,28.13
2018-07-25T03:38:26.049Z,33.75
2018-07-25T03:39:26.049Z,39.38
2018-07-25T03:40:26.056Z,39.38
2018-07-25T03:41:26.056Z,39.38
2018-07-25T03:42:26.058Z,39.38
2018-07-25T03:43:26.059Z,45.00
2018-07-25T03:44:26.080Z,45.00
2018-07-25T03:45:26.073Z,50.63
2018-07-25T03:46:26.068Z,50.63
2018-07-25T03:47:26.069Z,56.25
2018-07-25T03:48:26.072Z,56.25
2018-07-25T03:49:26.077Z,73.13
2018-07-25T03:50:26.074Z,78.75
2018-07-25T03:51:26.079Z,73.13
2018-07-25T03:52:26.081Z,56.25
2018-07-25T03:53:26.084Z,90.00
2018-07-25T03:54:26.115Z,90.00
2018-07-25T03:55:26.088Z,101.25
2018-07-25T03:56:26.090Z,106.88
2018-07-25T03:57:26.093Z,106.88
2018-07-25T03:58:26.095Z,106.88
2018-07-25T03:59:26.095Z,95.63
2018-07-25T04:00:26.098Z,73.13
2018-07-25T04:01:26.101Z,73.13
2018-07-25T04:02:26.107Z,73.13
2018-07-25T04:03:26.104Z,73.13
2018-07-25T04:04:26.109Z,73.13
2018-07-25T04:05:26.112Z,73.13
2018-07-25T04:06:26.114Z,67.50
2018-07-25T04:07:26.116Z,67.50
2018-07-25T04:08:26.118Z,73.13
2018-07-25T04:09:26.122Z,73.13
2018-07-25T04:10:26.124Z,73.13
2018-07-25T04:11:26.125Z,73.13
2018-07-25T04:12:26.130Z,73.13
2018-07-25T04:13:26.135Z,78.75
2018-07-25T04:14:26.133Z,180.00
2018-07-25T04:15:26.159Z,146.25
2018-07-25T04:16:26.142Z,106.88
2018-07-25T04:17:26.142Z,112.50
2018-07-25T04:18:26.145Z,84.38
2018-07-25T04:19:26.145Z,151.88
2018-07-25T04:20:26.148Z,101.25
2018-07-25T04:21:26.155Z,168.75
2018-07-25T04:22:26.150Z,208.13
2018-07-25T04:23:26.154Z,196.88
2018-07-25T04:24:26.158Z,135.00
2018-07-25T04:25:26.162Z,168.75
2018-07-25T04:26:26.165Z,163.13
2018-07-25T04:27:26.166Z,196.88
2018-07-25T04:28:26.173Z,129.38
2018-07-25T04:29:26.173Z,180.00
2018-07-25T04:30:26.175Z,123.75
2018-07-25T04:31:26.176Z,118.13
2018-07-25T04:32:26.180Z,118.13
2018-07-25T04:33:26.184Z,118.13
2018-07-25T04:34:26.187Z,123.75
2018-07-25T04:35:26.188Z,123.75
2018-07-25T04:36:26.192Z,118.13
2018-07-25T04:37:26.197Z,123.75
2018-07-25T04:38:26.203Z,123.75
2018-07-25T04:39:26.199Z,118.13
2018-07-25T04:40:26.202Z,129.38
2018-07-25T04:41:26.206Z,118.13
2018-07-25T04:42:26.208Z,129.38
2018-07-25T04:43:26.209Z,123.75
2018-07-25T04:44:26.215Z,123.75
2018-07-25T04:45:26.217Z,118.13
2018-07-25T04:46:26.414Z,123.75
2018-07-25T04:47:26.234Z,123.75
2018-07-25T04:48:26.223Z,129.38
2018-07-25T04:49:26.226Z,140.63
2018-07-25T04:50:26.234Z,146.25
2018-07-25T04:51:26.234Z,151.88
2018-07-25T04:52:26.237Z,157.50
2018-07-25T04:53:26.238Z,174.38
2018-07-25T04:54:26.576Z,185.63
2018-07-25T04:55:26.244Z,202.50
2018-07-25T04:56:26.250Z,241.88
2018-07-25T04:57:26.252Z,365.63
2018-07-25T04:58:26.256Z,213.75
2018-07-25T04:59:26.259Z,230.63
2018-07-25T05:00:26.261Z,365.63
2018-07-25T05:01:26.266Z,236.25
2018-07-25T05:02:26.275Z,365.63
2018-07-25T05:03:26.291Z,371.25
2018-07-25T05:04:26.288Z,371.25
2018-07-25T05:05:26.283Z,382.50
2018-07-25T05:06:26.284Z,388.13
2018-07-25T05:07:26.284Z,393.75
2018-07-25T05:08:26.288Z,399.38
2018-07-25T05:09:26.292Z,388.13
2018-07-25T05:10:26.295Z,382.50
2018-07-25T05:11:26.299Z,376.88
2018-07-25T05:12:26.311Z,365.63
2018-07-25T05:13:26.306Z,371.25
2018-07-25T05:14:26.309Z,371.25
2018-07-25T05:15:26.315Z,371.25
2018-07-25T05:16:26.318Z,365.63
2018-07-25T05:17:26.321Z,371.25
2018-07-25T05:18:26.323Z,376.88
2018-07-25T05:19:26.329Z,376.88
2018-07-25T05:20:26.374Z,371.25
2018-07-25T05:21:26.340Z,371.25
2018-07-25T05:22:26.346Z,376.88
2018-07-25T05:23:26.355Z,382.50
2018-07-25T05:24:26.356Z,388.13
2018-07-25T05:25:26.363Z,388.13
2018-07-25T05:26:26.367Z,393.75
2018-07-25T05:27:26.372Z,399.38
2018-07-25T05:28:26.377Z,399.38
2018-07-25T05:29:26.383Z,399.38
2018-07-25T05:30:26.386Z,399.38
2018-07-25T05:31:26.392Z,399.38
2018-07-25T05:32:26.399Z,399.38
2018-07-25T05:33:26.405Z,399.38
2018-07-25T05:34:26.409Z,399.38
2018-07-25T05:35:26.415Z,393.75
2018-07-25T05:36:26.422Z,393.75
2018-07-25T05:37:26.427Z,393.75
2018-07-25T05:38:26.433Z,399.38
2018-07-25T05:39:26.440Z,393.75
2018-07-25T05:40:26.446Z,393.75
2018-07-25T05:41:26.452Z,399.38
2018-07-25T05:42:26.459Z,399.38
2018-07-25T05:43:26.464Z,405.00
2018-07-25T05:44:26.471Z,410.63
2018-07-25T05:45:26.477Z,410.63
2018-07-25T05:46:26.485Z,410.63
2018-07-25T05:47:26.489Z,410.63
2018-07-25T05:48:26.497Z,410.63
2018-07-25T05:49:26.549Z,416.25
2018-07-25T05:50:26.512Z,416.25
2018-07-25T05:51:26.517Z,421.88
2018-07-25T05:52:26.526Z,427.50
2018-07-25T05:53:26.532Z,427.50
2018-07-25T05:54:26.733Z,421.88
2018-07-25T05:55:26.545Z,427.50
2018-07-25T05:56:26.553Z,433.13
2018-07-25T05:57:26.561Z,438.75
2018-07-25T05:58:26.588Z,444.38
2018-07-25T05:59:26.577Z,450.00
2018-07-25T06:00:26.582Z,450.00
2018-07-25T06:01:26.591Z,455.63
2018-07-25T06:02:26.598Z,461.25
2018-07-25T06:03:26.622Z,472.50
2018-07-25T06:04:26.643Z,483.75
2018-07-25T06:05:26.621Z,495.00
2018-07-25T06:06:26.631Z,517.50
2018-07-25T06:07:26.635Z,590.63
2018-07-25T06:08:26.647Z,990.00
2018-07-25T06:09:26.650Z,1485.00
2018-07-25T06:10:26.659Z,1681.88
2018-07-25T06:11:26.674Z,1698.75
2018-07-25T06:12:26.680Z,1681.88
2018-07-25T06:13:26.686Z,1670.63
2018-07-25T06:14:26.696Z,1704.38
2018-07-25T06:15:26.701Z,1726.88
2018-07-25T06:16:26.709Z,1783.13
2018-07-25T06:17:26.718Z,1811.25
2018-07-25T06:18:26.728Z,1839.38
2018-07-25T06:19:26.734Z,1856.25
2018-07-25T06:20:26.780Z,1839.38
2018-07-25T06:21:26.760Z,1822.50
2018-07-25T06:22:26.764Z,1845.00
2018-07-25T06:23:26.771Z,1901.25
2018-07-25T06:24:26.783Z,1940.63
2018-07-25T06:25:26.792Z,1923.75
2018-07-25T06:26:26.801Z,1845.00
2018-07-25T06:27:26.809Z,1800.00
2018-07-25T06:28:26.821Z,1783.13
2018-07-25T06:29:26.828Z,1828.13
2018-07-25T06:30:26.838Z,1912.50
2018-07-25T06:31:26.881Z,1963.13
2018-07-25T06:32:26.857Z,1996.88
2018-07-25T06:33:26.870Z,2025.00
2018-07-25T06:34:26.876Z,2030.63
2018-07-25T06:35:26.890Z,2025.00
2018-07-25T06:36:26.897Z,2013.75
2018-07-25T06:37:26.903Z,2041.88
2018-07-25T06:38:26.919Z,2092.50
2018-07-25T06:39:26.924Z,2148.75
2018-07-25T06:40:26.932Z,2165.63
2018-07-25T06:41:26.944Z,2165.63
2018-07-25T06:42:26.956Z,2182.50
2018-07-25T06:43:27.012Z,2193.75
2018-07-25T06:44:26.980Z,2216.25
2018-07-25T06:45:26.988Z,2255.63
2018-07-25T06:46:26.996Z,2317.50
2018-07-25T06:47:27.004Z,2385.00
2018-07-25T06:48:27.012Z,2396.25
2018-07-25T06:49:27.027Z,2334.38
2018-07-25T06:50:27.035Z,2233.13
2018-07-25T06:51:27.045Z,2205.00
2018-07-25T06:52:27.054Z,2250.00
2018-07-25T06:53:27.062Z,2323.13
2018-07-25T06:54:27.072Z,2396.25
2018-07-25T06:55:27.086Z,2469.38
2018-07-25T06:56:27.097Z,2514.38
2018-07-25T06:57:27.172Z,2390.63
2018-07-25T06:58:27.114Z,2165.63
2018-07-25T06:59:27.126Z,2058.75
2018-07-25T07:00:27.145Z,2115.00
2018-07-25T07:01:27.156Z,2131.88
2018-07-25T07:02:27.161Z,2098.13
2018-07-25T07:03:27.172Z,2081.25
2018-07-25T07:04:27.188Z,2109.38
2018-07-25T07:05:27.194Z,2205.00
2018-07-25T07:06:27.204Z,2317.50
2018-07-25T07:07:27.216Z,2418.75
2018-07-25T07:08:27.227Z,2497.50
2018-07-25T07:09:27.238Z,2587.50
2018-07-25T07:10:27.250Z,2638.13
2018-07-25T07:11:27.260Z,2542.50
2018-07-25T07:12:27.272Z,2390.63
2018-07-25T07:13:27.280Z,2306.25
2018-07-25T07:14:27.293Z,2311.88
2018-07-25T07:15:27.306Z,2340.00
2018-07-25T07:16:27.319Z,2424.38
2018-07-25T07:17:27.393Z,2548.13
2018-07-25T07:18:27.425Z,2660.63
2018-07-25T07:19:27.344Z,2711.25
2018-07-25T07:20:27.362Z,2767.50
2018-07-25T07:21:27.373Z,2818.13
2018-07-25T07:22:27.387Z,2801.25
2018-07-25T07:23:27.393Z,2745.00
2018-07-25T07:24:27.408Z,2688.75
2018-07-25T07:25:27.414Z,2671.88
2018-07-25T07:26:27.431Z,2688.75
2018-07-25T07:27:27.444Z,2711.25
2018-07-25T07:28:27.452Z,2660.63
2018-07-25T07:29:27.461Z,2536.88
2018-07-25T07:30:27.478Z,2418.75
2018-07-25T07:31:27.564Z,2430.00
2018-07-25T07:32:27.501Z,2587.50
2018-07-25T07:33:27.512Z,2795.63
2018-07-25T07:34:27.524Z,2970.00
2018-07-25T07:35:27.533Z,3060.00
2018-07-25T07:36:27.558Z,3065.63
2018-07-25T07:37:27.713Z,3060.00
2018-07-25T07:38:27.570Z,3088.13
2018-07-25T07:39:27.625Z,3127.50
2018-07-25T07:40:27.594Z,3133.13
2018-07-25T07:41:27.606Z,3110.63
2018-07-25T07:42:27.621Z,3076.88
2018-07-25T07:43:27.633Z,3065.63
2018-07-25T07:44:27.644Z,3076.88
2018-07-25T07:45:27.658Z,3088.13
2018-07-25T07:46:27.664Z,3093.75
2018-07-25T07:47:27.682Z,3105.00
2018-07-25T07:48:27.692Z,3116.25
2018-07-25T07:49:27.703Z,3116.25
2018-07-25T07:50:27.713Z,3172.50
2018-07-25T07:51:27.726Z,3206.25
2018-07-25T07:52:27.740Z,3268.13
2018-07-25T07:53:27.873Z,3318.75
2018-07-25T07:54:27.764Z,3391.88
2018-07-25T07:55:27.776Z,3425.63
2018-07-25T07:56:27.791Z,3431.25
2018-07-25T07:57:27.802Z,3425.63
2018-07-25T07:58:27.810Z,3391.88
2018-07-25T07:59:27.837Z,3296.25
2018-07-25T08:00:27.838Z,3217.50
2018-07-25T08:01:27.850Z,3189.38
2018-07-25T08:02:27.871Z,3206.25
2018-07-25T08:03:27.901Z,3262.50
2018-07-25T08:04:27.886Z,3324.38
2018-07-25T08:05:27.899Z,3403.13
2018-07-25T08:06:27.919Z,3487.50
2018-07-25T08:07:27.927Z,3538.13
2018-07-25T08:08:27.931Z,3555.00
2018-07-25T08:09:27.948Z,3605.63
2018-07-25T08:10:27.962Z,3628.13
2018-07-25T08:11:27.973Z,3678.75
2018-07-25T08:12:27.986Z,3695.63
2018-07-25T08:13:27.996Z,3673.13
2018-07-25T08:14:28.015Z,3645.00
2018-07-25T08:15:28.023Z,3628.13
2018-07-25T08:16:28.038Z,3616.88
2018-07-25T08:17:28.053Z,3611.25
2018-07-25T08:18:28.063Z,3605.63
2018-07-25T08:19:28.074Z,3616.88
2018-07-25T08:20:28.093Z,3678.75
2018-07-25T08:21:28.102Z,3712.50
2018-07-25T08:22:28.116Z,3729.38
2018-07-25T08:23:28.131Z,3695.63
2018-07-25T08:24:28.186Z,3605.63
2018-07-25T08:25:28.152Z,3583.13
2018-07-25T08:26:28.167Z,3571.88
2018-07-25T08:27:28.180Z,3650.63
2018-07-25T08:28:28.192Z,3661.88
2018-07-25T08:29:28.205Z,3712.50
2018-07-25T08:30:28.219Z,3768.75
2018-07-25T08:31:28.232Z,3763.13
2018-07-25T08:32:28.246Z,3768.75
2018-07-25T08:33:28.264Z,3796.88
2018-07-25T08:34:28.300Z,3836.25
2018-07-25T08:35:28.286Z,3892.50
2018-07-25T08:36:28.305Z,3915.00
2018-07-25T08:37:28.315Z,3937.50
2018-07-25T08:38:28.333Z,3870.00
2018-07-25T08:39:28.341Z,3791.25
2018-07-25T08:40:28.356Z,3729.38
2018-07-25T08:41:28.364Z,3639.38
2018-07-25T08:42:28.384Z,3645.00
2018-07-25T08:43:28.401Z,3791.25
2018-07-25T08:44:28.416Z,3796.88
2018-07-25T08:45:28.425Z,3813.75
2018-07-25T08:46:28.439Z,3757.50
2018-07-25T08:47:28.454Z,3538.13
2018-07-25T08:48:28.466Z,3330.00
2018-07-25T08:49:28.475Z,3369.38
2018-07-25T08:50:28.496Z,3301.88
2018-07-25T08:51:28.577Z,3414.38
2018-07-25T08:52:28.570Z,3678.75
2018-07-25T08:53:28.538Z,3976.88
2018-07-25T08:54:28.554Z,4190.63
2018-07-25T08:55:28.622Z,4263.75
2018-07-25T08:56:28.578Z,3763.13
2018-07-25T08:57:28.597Z,2716.88
2018-07-25T08:58:28.605Z,3971.25
2018-07-25T08:59:28.620Z,4134.38
2018-07-25T09:00:28.642Z,4207.50
2018-07-25T09:01:28.645Z,4235.63
2018-07-25T09:02:28.661Z,4140.00
2018-07-25T09:03:28.678Z,3448.13
2018-07-25T09:04:28.685Z,1338.75
2018-07-25T09:05:28.703Z,343.13
2018-07-25T09:06:28.732Z,337.50
2018-07-25T09:07:28.771Z,320.63
2018-07-25T09:08:28.741Z,286.88
2018-07-25T09:09:28.754Z,275.63
2018-07-25T09:10:28.763Z,270.00
2018-07-25T09:11:28.836Z,264.38
2018-07-25T09:12:28.789Z,258.75
2018-07-25T09:13:28.875Z,258.75
2018-07-25T09:14:28.813Z,258.75
2018-07-25T09:15:28.823Z,264.38
2018-07-25T09:16:28.839Z,264.38
2018-07-25T09:17:28.845Z,264.38
2018-07-25T09:18:28.856Z,253.13
2018-07-25T09:19:28.864Z,247.50
2018-07-25T09:20:28.875Z,247.50
2018-07-25T09:21:28.881Z,253.13
2018-07-25T09:22:28.897Z,253.13
2018-07-25T09:23:28.913Z,258.75
2018-07-25T09:24:28.916Z,275.63
2018-07-25T09:25:28.944Z,298.13
2018-07-25T09:26:28.934Z,343.13
2018-07-25T09:27:28.942Z,376.88
2018-07-25T09:28:28.951Z,348.75
2018-07-25T09:29:28.964Z,292.50
2018-07-25T09:30:28.975Z,292.50
2018-07-25T09:31:28.978Z,320.63
2018-07-25T09:32:29.047Z,309.38
2018-07-25T09:33:28.994Z,253.13
2018-07-25T09:34:29.006Z,253.13
2018-07-25T09:35:29.011Z,219.38
2018-07-25T09:36:29.020Z,208.13
2018-07-25T09:37:29.028Z,247.50
2018-07-25T09:38:29.037Z,253.13
2018-07-25T09:39:29.043Z,241.88
2018-07-25T09:40:29.055Z,236.25
2018-07-25T09:41:29.111Z,247.50
2018-07-25T09:42:29.072Z,270.00
2018-07-25T09:43:29.078Z,270.00
2018-07-25T09:44:29.084Z,264.38
2018-07-25T09:45:29.091Z,258.75
2018-07-25T09:46:29.119Z,258.75
2018-07-25T09:47:29.106Z,264.38
2018-07-25T09:48:29.119Z,264.38
2018-07-25T09:49:29.122Z,270.00
2018-07-25T09:50:29.147Z,270.00
2018-07-25T09:51:29.141Z,264.38
2018-07-25T09:52:29.147Z,258.75
2018-07-25T09:53:29.169Z,253.13
2018-07-25T09:54:29.161Z,247.50
2018-07-25T09:55:29.166Z,241.88
2018-07-25T09:56:29.175Z,241.88
2018-07-25T09:57:29.183Z,247.50
2018-07-25T09:58:29.190Z,264.38
2018-07-25T09:59:29.197Z,264.38
2018-07-25T10:00:29.205Z,258.75
2018-07-25T10:01:29.213Z,253.13
2018-07-25T10:02:29.224Z,253.13
2018-07-25T10:03:29.229Z,270.00
2018-07-25T10:04:29.236Z,275.63
2018-07-25T10:05:29.263Z,275.63
2018-07-25T10:06:29.257Z,281.25
2018-07-25T10:07:29.261Z,292.50
2018-07-25T10:08:29.267Z,309.38
2018-07-25T10:09:29.292Z,309.38
2018-07-25T10:10:29.281Z,315.00
2018-07-25T10:11:29.287Z,315.00
2018-07-25T10:12:29.292Z,315.00
2018-07-25T10:13:29.304Z,315.00
2018-07-25T10:14:29.311Z,320.63
2018-07-25T10:15:29.325Z,315.00
2018-07-25T10:16:29.327Z,298.13
2018-07-25T10:17:29.333Z,292.50
2018-07-25T10:18:29.340Z,281.25
2018-07-25T10:19:29.347Z,258.75
2018-07-25T10:20:29.358Z,264.38
2018-07-25T10:22:34.606Z,241.88
2018-07-25T10:23:34.594Z,236.25
2018-07-25T10:25:28.011Z,230.63
2018-07-25T10:26:28.012Z,225.00
2018-07-25T10:28:22.559Z,230.63
2018-07-25T10:29:22.427Z,241.88
2018-07-25T10:30:22.431Z,253.13
2018-07-25T10:31:22.438Z,253.13
2018-07-25T10:32:22.446Z,253.13
2018-07-25T10:33:22.453Z,264.38
2018-07-25T10:34:22.482Z,270.00
2018-07-25T10:35:22.465Z,270.00
2018-07-25T10:36:22.474Z,275.63
2018-07-25T10:37:22.479Z,281.25
2018-07-25T10:38:22.487Z,281.25
2018-07-25T10:39:22.494Z,270.00
2018-07-25T10:40:22.500Z,247.50
2018-07-25T10:41:22.509Z,225.00
2018-07-25T10:42:22.522Z,185.63
2018-07-25T10:43:22.522Z,196.88
2018-07-25T10:44:22.527Z,185.63
2018-07-25T10:45:22.538Z,219.38
2018-07-25T10:46:22.540Z,219.38
2018-07-25T10:47:22.554Z,236.25
2018-07-25T10:48:22.565Z,236.25
2018-07-25T10:49:22.568Z,236.25
2018-07-25T10:50:22.579Z,202.50
2018-07-25T10:51:22.586Z,230.63
2018-07-25T10:52:22.589Z,230.63
2018-07-25T10:53:22.599Z,225.00
2018-07-25T10:54:22.604Z,202.50
2018-07-25T10:55:22.617Z,219.38
2018-07-25T10:56:22.619Z,219.38
2018-07-25T10:57:22.628Z,213.75
2018-07-25T10:58:22.637Z,208.13
2018-07-25T10:59:22.642Z,219.38
2018-07-25T11:00:22.647Z,219.38
2018-07-25T11:01:22.700Z,219.38
2018-07-25T11:02:22.659Z,230.63
2018-07-25T11:03:22.668Z,253.13
2018-07-25T11:04:22.691Z,270.00
2018-07-25T11:05:22.685Z,275.63
2018-07-25T11:06:22.688Z,264.38
2018-07-25T11:07:22.695Z,270.00
2018-07-25T11:08:22.704Z,286.88
2018-07-25T11:09:22.712Z,270.00
2018-07-25T11:10:22.719Z,264.38
2018-07-25T11:11:22.725Z,253.13
2018-07-25T11:12:22.730Z,258.75
2018-07-25T11:13:22.741Z,258.75
2018-07-25T11:14:22.748Z,230.63
2018-07-25T11:15:22.755Z,236.25
2018-07-25T11:16:22.900Z,253.13
2018-07-25T11:17:22.767Z,258.75
2018-07-25T11:18:22.777Z,202.50
2018-07-25T11:19:22.781Z,196.88
2018-07-25T11:20:22.794Z,191.25
2018-07-25T11:21:22.796Z,236.25
2018-07-25T11:22:22.806Z,230.63
2018-07-25T11:23:22.814Z,236.25
2018-07-25T11:24:22.820Z,219.38
2018-07-25T11:25:22.827Z,185.63
2018-07-25T11:26:22.834Z,174.38
2018-07-25T11:27:22.843Z,168.75
2018-07-25T11:28:22.849Z,174.38
2018-07-25T11:29:22.867Z,219.38
2018-07-25T11:30:22.865Z,180.00
2018-07-25T11:31:22.871Z,185.63
2018-07-25T11:32:22.897Z,213.75
2018-07-25T11:33:22.886Z,225.00
2018-07-25T11:34:22.894Z,225.00
2018-07-25T11:35:22.900Z,219.38
2018-07-25T11:36:22.908Z,213.75
2018-07-25T11:37:22.916Z,208.13
2018-07-25T11:38:22.922Z,202.50
2018-07-25T11:39:22.929Z,202.50
2018-07-25T11:40:22.937Z,202.50
2018-07-25T11:41:22.944Z,202.50
2018-07-25T11:42:22.950Z,202.50
2018-07-25T11:43:22.961Z,208.13
2018-07-25T11:44:22.968Z,208.13
2018-07-25T11:45:22.974Z,208.13
2018-07-25T11:46:22.980Z,208.13
2018-07-25T11:47:22.987Z,208.13
2018-07-25T11:48:22.993Z,208.13
2018-07-25T11:49:23.000Z,213.75
2018-07-25T11:50:23.076Z,213.75
2018-07-25T11:51:23.020Z,219.38
2018-07-25T11:52:23.022Z,225.00
2018-07-25T11:53:23.028Z,230.63
2018-07-25T11:54:23.035Z,236.25
2018-07-25T11:55:23.161Z,253.13
2018-07-25T11:56:23.049Z,264.38
2018-07-25T11:57:23.061Z,270.00
2018-07-25T11:58:23.066Z,258.75
2018-07-25T11:59:23.077Z,241.88
2018-07-25T12:00:23.084Z,230.63
2018-07-25T12:01:23.149Z,225.00
2018-07-25T12:02:23.093Z,230.63
2018-07-25T12:03:23.103Z,230.63
2018-07-25T12:04:23.107Z,236.25
2018-07-25T12:05:23.118Z,241.88
2018-07-25T12:06:23.128Z,230.63
2018-07-25T12:07:23.145Z,236.25
2018-07-25T12:08:23.144Z,236.25
2018-07-25T12:09:23.142Z,236.25
2018-07-25T12:10:23.153Z,236.25
2018-07-25T12:11:23.156Z,230.63
2018-07-25T12:12:23.169Z,225.00
2018-07-25T12:13:23.176Z,219.38
2018-07-25T12:14:23.182Z,213.75
2018-07-25T12:15:23.189Z,213.75
2018-07-25T12:16:23.197Z,213.75
2018-07-25T12:17:23.204Z,208.13
2018-07-25T12:18:23.210Z,202.50
2018-07-25T12:19:23.222Z,196.88
2018-07-25T12:20:23.226Z,196.88
2018-07-25T12:21:23.240Z,196.88
2018-07-25T12:22:23.247Z,191.25
2018-07-25T12:23:23.254Z,135.00
2018-07-25T12:24:23.259Z,140.63
2018-07-25T12:25:23.268Z,174.38
2018-07-25T12:26:23.280Z,191.25
2018-07-25T12:27:23.285Z,191.25
2018-07-25T12:28:23.292Z,185.63
2018-07-25T12:29:23.300Z,185.63
2018-07-25T12:30:23.306Z,185.63
2018-07-25T12:31:23.318Z,185.63
2018-07-25T12:32:23.323Z,185.63
2018-07-25T12:33:23.330Z,191.25
2018-07-25T12:35:23.344Z,196.88
2018-07-25T12:36:23.352Z,202.50
2018-07-25T12:37:23.360Z,202.50
2018-07-25T12:38:23.367Z,196.88
2018-07-25T12:39:23.376Z,196.88
2018-07-25T12:40:23.383Z,196.88
2018-07-25T12:41:23.389Z,196.88